Time;durP1;ratioP1;P1;durP2;ratioP2;P2;SDS_P1;SDS_P2;PMS_P1;PMS_P2;Temp;Humidity;BMP_temperature;BMP_pressure;BME280_temperature;BME280_humidity;BME280_pressure;Samples;Min_cycle;Max_cycle;Signal;HPM_P1;HPM_P2
2024/02/21 00:02:16;;;;;;;13.23;4.93;;;6.90;1.00;;;;;;7373311;19;20069;-71
2024/02/21 00:04:46;;;;;;;11.40;4.20;;;6.90;1.00;;;;;;7371360;19;20006;-70
2024/02/21 00:07:16;;;;;;;10.45;4.35;;;6.90;1.00;;;;;;7372211;19;20015;-70
2024/02/21 00:09:49;;;;;;;10.85;4.97;;;7.00;1.00;;;;;;7372052;19;20049;-70
2024/02/21 00:12:19;;;;;;;6.88;4.10;;;7.00;1.00;;;;;;7371928;19;20019;-71
2024/02/21 00:14:49;;;;;;;14.68;4.53;;;7.10;1.00;;;;;;7372953;19;20015;-71
2024/02/21 00:17:19;;;;;;;11.45;4.68;;;7.10;1.00;;;;;;7373595;19;20478;-71
2024/02/21 00:19:49;;;;;;;11.70;4.85;;;7.10;1.00;;;;;;7372111;19;20080;-71
2024/02/21 00:22:19;;;;;;;13.90;4.78;;;7.10;1.00;;;;;;7373317;19;20082;-71
2024/02/21 00:24:52;;;;;;;12.48;4.60;;;7.10;1.00;;;;;;7371697;19;20374;-71
2024/02/21 00:27:22;;;;;;;12.73;5.00;;;7.10;1.00;;;;;;7372911;19;20019;-71
2024/02/21 00:29:52;;;;;;;10.05;4.75;;;7.00;1.00;;;;;;7370083;19;20019;-72
2024/02/21 00:32:23;;;;;;;12.13;5.03;;;7.00;1.00;;;;;;7372715;19;20010;-71
2024/02/21 00:34:53;;;;;;;12.27;4.63;;;7.00;1.00;;;;;;7369136;19;20019;-72
2024/02/21 00:37:23;;;;;;;13.48;4.97;;;7.00;1.00;;;;;;7369045;19;20028;-71
2024/02/21 00:39:57;;;;;;;10.27;4.50;;;6.90;1.00;;;;;;7372154;19;20448;-70
2024/02/21 00:42:27;;;;;;;10.18;4.80;;;6.90;1.00;;;;;;7368218;19;20117;-71
2024/02/21 00:44:57;;;;;;;12.38;5.45;;;6.90;1.00;;;;;;7370823;19;20340;-71
2024/02/21 00:47:27;;;;;;;15.50;4.75;;;7.00;1.00;;;;;;7370132;19;20021;-71
2024/02/21 00:49:57;;;;;;;11.75;4.88;;;6.90;1.00;;;;;;7369476;19;20030;-71
2024/02/21 00:52:27;;;;;;;9.82;4.35;;;6.90;1.00;;;;;;7370851;19;20030;-71
2024/02/21 00:55:00;;;;;;;8.75;4.47;;;6.90;1.00;;;;;;7365762;19;20479;-70
2024/02/21 00:57:30;;;;;;;11.15;5.03;;;6.90;1.00;;;;;;7368637;19;20010;-70
2024/02/21 01:00:00;;;;;;;11.10;5.10;;;6.80;1.00;;;;;;7370833;19;20818;-71
2024/02/21 01:02:31;;;;;;;9.63;4.90;;;6.80;1.00;;;;;;7370711;19;20346;-70
2024/02/21 01:05:01;;;;;;;9.70;5.20;;;6.80;1.00;;;;;;7369634;19;20030;-71
2024/02/21 01:07:32;;;;;;;15.02;5.70;;;6.90;1.00;;;;;;7370380;19;20026;-71
2024/02/21 01:10:04;;;;;;;10.52;4.75;;;6.90;1.00;;;;;;7370312;19;20020;-72
2024/02/21 01:12:34;;;;;;;13.25;4.80;;;6.90;1.00;;;;;;7370588;19;20085;-70
2024/02/21 01:15:04;;;;;;;14.73;5.07;;;6.90;1.00;;;;;;7363859;19;20345;-71
2024/02/21 01:17:35;;;;;;;9.20;4.30;;;6.80;1.00;;;;;;7370191;19;20475;-70
2024/02/21 01:20:06;;;;;;;11.88;4.65;;;6.80;1.00;;;;;;7368628;19;20014;-70
2024/02/21 01:22:36;;;;;;;9.65;4.40;;;6.80;1.00;;;;;;7367590;19;20014;-70
2024/02/21 01:25:10;;;;;;;8.93;4.43;;;6.80;1.00;;;;;;7364577;19;20015;-70
2024/02/21 01:27:40;;;;;;;13.80;5.15;;;6.80;1.00;;;;;;7367239;19;20040;-70
2024/02/21 01:30:13;;;;;;;12.70;4.80;;;6.70;1.00;;;;;;7367242;19;20018;-70
2024/02/21 01:32:43;;;;;;;13.38;5.15;;;6.70;1.00;;;;;;7370392;19;20027;-71
2024/02/21 01:35:13;;;;;;;10.30;5.30;;;6.60;1.00;;;;;;7369454;19;20475;-71
2024/02/21 01:37:43;;;;;;;14.43;5.78;;;6.70;1.00;;;;;;7370831;19;20021;-71
2024/02/21 01:40:17;;;;;;;13.35;5.68;;;6.70;1.00;;;;;;7368749;19;20047;-71
2024/02/21 01:42:48;;;;;;;15.70;5.90;;;6.80;1.00;;;;;;7369206;19;20006;-71
2024/02/21 01:45:18;;;;;;;9.85;5.13;;;6.90;1.00;;;;;;7367069;19;20010;-71
2024/02/21 01:47:49;;;;;;;9.20;4.30;;;6.90;1.00;;;;;;7368751;19;20464;-71
2024/02/21 01:50:20;;;;;;;9.27;4.40;;;6.80;1.00;;;;;;7368821;19;20026;-71
2024/02/21 01:52:51;;;;;;;8.38;4.30;;;6.80;1.00;;;;;;7369479;19;20006;-70
2024/02/21 01:55:24;;;;;;;11.27;3.92;;;6.80;1.00;;;;;;7368628;19;20170;-70
2024/02/21 01:57:54;;;;;;;9.20;4.50;;;6.80;1.00;;;;;;7365948;19;20470;-71
2024/02/21 02:00:26;;;;;;;14.15;6.07;;;6.90;1.00;;;;;;7369326;19;20010;-71
2024/02/21 02:02:57;;;;;;;11.38;4.25;;;7.00;1.00;;;;;;7371333;19;20359;-72
2024/02/21 02:05:27;;;;;;;10.93;3.83;;;7.00;1.00;;;;;;7371825;19;20011;-72
2024/02/21 02:07:57;;;;;;;9.30;3.80;;;7.00;1.00;;;;;;7370098;19;20006;-73
2024/02/21 02:10:30;;;;;;;13.30;4.28;;;7.00;1.00;;;;;;7367767;19;20022;-72
2024/02/21 02:13:00;;;;;;;9.90;3.72;;;7.10;1.00;;;;;;7367358;19;20032;-72
2024/02/21 02:15:40;;;;;;;11.23;3.95;;;7.20;1.00;;;;;;7366695;19;20507;-72
2024/02/21 02:18:11;;;;;;;10.65;3.75;;;7.10;1.00;;;;;;7369910;19;20017;-72
2024/02/21 02:20:41;;;;;;;6.72;3.35;;;7.10;1.00;;;;;;7366451;19;20018;-71
2024/02/21 02:23:14;;;;;;;13.93;3.78;;;7.10;1.00;;;;;;7368939;19;20041;-71
2024/02/21 02:25:49;;;;;;;8.65;3.60;;;7.10;1.00;;;;;;7366047;19;20031;-71
2024/02/21 02:28:19;;;;;;;12.98;3.35;;;7.10;1.00;;;;;;7368694;19;20026;-71
2024/02/21 02:30:50;;;;;;;8.70;3.53;;;7.10;1.00;;;;;;7364941;19;24912;-71
2024/02/21 02:33:20;;;;;;;10.50;3.92;;;7.10;1.00;;;;;;7367696;19;20043;-72
2024/02/21 02:35:50;;;;;;;11.20;3.55;;;7.10;1.00;;;;;;7367499;19;20484;-71
2024/02/21 02:38:20;;;;;;;8.43;3.40;;;7.10;1.00;;;;;;7376585;19;20018;-71
2024/02/21 02:40:53;;;;;;;6.93;3.50;;;7.10;1.00;;;;;;7374353;19;20515;-71
2024/02/21 02:43:23;;;;;;;7.18;3.63;;;7.10;1.00;;;;;;7373705;19;20410;-71
2024/02/21 02:45:53;;;;;;;13.65;3.97;;;7.10;1.00;;;;;;7374876;19;20024;-71
2024/02/21 02:48:23;;;;;;;11.80;4.13;;;7.10;1.00;;;;;;7375037;19;20007;-73
2024/02/21 02:50:53;;;;;;;12.50;4.35;;;7.10;1.00;;;;;;7373678;19;20033;-73
2024/02/21 02:53:23;;;;;;;10.02;3.78;;;7.00;1.00;;;;;;7374208;19;20026;-72
2024/02/21 02:55:56;;;;;;;8.13;3.40;;;7.00;1.00;;;;;;7374563;19;20026;-73
2024/02/21 02:58:26;;;;;;;7.63;3.38;;;6.90;1.00;;;;;;7375606;19;20125;-73
2024/02/21 03:00:56;;;;;;;10.02;4.28;;;6.90;1.00;;;;;;7374727;19;20010;-72
2024/02/21 03:03:26;;;;;;;10.68;3.95;;;6.80;1.00;;;;;;7375490;19;20019;-72
2024/02/21 03:05:57;;;;;;;9.65;3.88;;;6.80;1.00;;;;;;7373403;19;20018;-72
2024/02/21 03:08:27;;;;;;;10.98;4.07;;;6.80;1.00;;;;;;7369837;19;20046;-72
2024/02/21 03:10:59;;;;;;;9.93;3.70;;;6.80;1.00;;;;;;7372671;19;20240;-72
2024/02/21 03:13:30;;;;;;;9.80;4.45;;;6.80;1.00;;;;;;7374644;19;20013;-72
2024/02/21 03:16:00;;;;;;;8.93;3.80;;;6.80;1.00;;;;;;7373150;19;20011;-73
2024/02/21 03:18:30;;;;;;;10.90;4.28;;;6.70;1.00;;;;;;7375278;19;20011;-73
2024/02/21 03:21:05;;;;;;;10.05;3.90;;;6.70;1.00;;;;;;7370574;19;20353;-71
2024/02/21 03:23:35;;;;;;;6.68;3.80;;;6.70;1.00;;;;;;7373058;19;20086;-72
2024/02/21 03:26:07;;;;;;;13.68;4.50;;;6.70;1.00;;;;;;7374479;19;20017;-71
2024/02/21 03:28:39;;;;;;;12.43;3.97;;;6.70;1.00;;;;;;7373801;19;20010;-72
2024/02/21 03:31:07;;;;;;;10.98;4.18;;;6.70;1.00;;;;;;7370092;19;20117;-72
2024/02/21 03:33:37;;;;;;;11.02;4.70;;;6.70;1.00;;;;;;7372992;19;20085;-72
2024/02/21 03:36:08;;;;;;;12.60;4.30;;;6.60;1.00;;;;;;7373406;19;20408;-72
2024/02/21 03:38:38;;;;;;;11.50;4.18;;;6.50;1.00;;;;;;7373474;19;20376;-72
2024/02/21 03:41:10;;;;;;;13.48;4.90;;;6.50;1.00;;;;;;7372181;19;20017;-72
2024/02/21 03:43:40;;;;;;;9.90;4.82;;;6.60;1.00;;;;;;7372395;19;20021;-71
2024/02/21 03:46:11;;;;;;;8.98;4.40;;;6.60;1.00;;;;;;7372664;19;20031;-72
2024/02/21 03:48:41;;;;;;;8.07;3.33;;;6.50;1.00;;;;;;7370769;19;20014;-72
2024/02/21 03:51:11;;;;;;;11.98;4.50;;;6.60;1.00;;;;;;7371448;19;20045;-72
2024/02/21 03:53:41;;;;;;;8.18;3.85;;;6.60;1.00;;;;;;7371864;19;20007;-72
2024/02/21 03:56:13;;;;;;;11.85;4.38;;;6.60;1.00;;;;;;7373569;19;20010;-72
2024/02/21 03:58:43;;;;;;;10.40;3.80;;;6.50;1.00;;;;;;7373602;19;20077;-71
2024/02/21 04:01:13;;;;;;;9.68;4.20;;;6.50;1.00;;;;;;7368476;19;20014;-71
2024/02/21 04:03:44;;;;;;;9.32;4.22;;;6.50;1.00;;;;;;7371262;19;20018;-72
2024/02/21 04:06:15;;;;;;;13.13;4.20;;;6.50;1.00;;;;;;7371627;19;20395;-71
2024/02/21 04:08:45;;;;;;;13.20;5.00;;;6.60;1.00;;;;;;7371471;19;20015;-72
2024/02/21 04:11:18;;;;;;;13.23;4.40;;;6.50;1.00;;;;;;7372070;19;20021;-70
2024/02/21 04:13:50;;;;;;;16.10;5.22;;;6.50;1.00;;;;;;7371928;19;20072;-72
2024/02/21 04:16:20;;;;;;;9.70;4.47;;;6.50;1.00;;;;;;7371931;19;20086;-72
2024/02/21 04:18:51;;;;;;;10.48;4.28;;;6.40;1.00;;;;;;7371504;19;20032;-72
2024/02/21 04:21:21;;;;;;;10.38;4.35;;;6.40;1.00;;;;;;7370549;19;20010;-72
2024/02/21 04:23:51;;;;;;;9.07;4.25;;;6.40;1.00;;;;;;7370423;19;20022;-72
2024/02/21 04:26:23;;;;;;;11.95;4.88;;;6.30;1.00;;;;;;7372372;19;20015;-72
2024/02/21 04:28:54;;;;;;;12.40;5.32;;;6.30;1.00;;;;;;7374475;19;20509;-72
2024/02/21 04:31:24;;;;;;;13.35;5.00;;;6.30;1.00;;;;;;7370431;19;20010;-72
2024/02/21 04:33:55;;;;;;;13.35;4.72;;;6.30;1.00;;;;;;7371268;19;20010;-72
2024/02/21 04:36:25;;;;;;;9.57;4.25;;;6.30;1.00;;;;;;7373405;19;20010;-72
2024/02/21 04:38:55;;;;;;;8.90;3.92;;;6.20;1.00;;;;;;7372373;19;20736;-72
2024/02/21 04:41:27;;;;;;;7.47;4.10;;;6.20;1.00;;;;;;7371479;19;20610;-72
2024/02/21 04:43:57;;;;;;;10.75;4.85;;;6.10;1.00;;;;;;7370995;19;20494;-70
2024/02/21 04:46:27;;;;;;;8.43;4.07;;;6.00;1.00;;;;;;7370665;19;20538;-71
2024/02/21 04:48:57;;;;;;;11.38;4.10;;;6.10;1.00;;;;;;7371444;19;20456;-70
2024/02/21 04:51:27;;;;;;;11.70;4.20;;;6.00;1.00;;;;;;7370433;19;20018;-71
2024/02/21 04:53:57;;;;;;;10.00;4.65;;;6.00;1.00;;;;;;7370166;19;20034;-71
2024/02/21 04:56:30;;;;;;;11.27;4.45;;;6.00;1.00;;;;;;7370137;19;20017;-72
2024/02/21 04:59:00;;;;;;;11.60;3.88;;;5.90;1.00;;;;;;7370608;19;20370;-72
2024/02/21 05:01:31;;;;;;;9.70;4.18;;;5.80;1.00;;;;;;7368750;19;20044;-71
2024/02/21 05:04:02;;;;;;;12.60;4.20;;;5.90;1.00;;;;;;7370750;19;20011;-71
2024/02/21 05:06:32;;;;;;;10.43;4.38;;;5.80;1.00;;;;;;7370503;19;20014;-73
2024/02/21 05:09:03;;;;;;;10.77;4.43;;;5.80;1.00;;;;;;7371474;19;20014;-71
2024/02/21 05:11:35;;;;;;;18.92;5.45;;;5.70;1.00;;;;;;7370758;19;20021;-72
2024/02/21 05:14:06;;;;;;;11.95;4.38;;;5.70;1.00;;;;;;7369901;19;20011;-72
2024/02/21 05:16:36;;;;;;;9.43;4.20;;;5.70;1.00;;;;;;7368847;19;20014;-72
2024/02/21 05:19:06;;;;;;;10.35;4.55;;;5.70;1.00;;;;;;7369722;19;20018;-71
2024/02/21 05:21:37;;;;;;;10.32;4.10;;;5.70;1.00;;;;;;7370101;19;20006;-71
2024/02/21 05:24:07;;;;;;;9.07;3.72;;;5.70;1.00;;;;;;7368801;19;20713;-70
2024/02/21 05:26:40;;;;;;;10.20;4.28;;;5.70;1.00;;;;;;7369941;19;20018;-71
2024/02/21 05:29:10;;;;;;;11.52;4.10;;;5.70;1.00;;;;;;7365635;19;20010;-71
2024/02/21 05:31:58;;;;;;;13.27;4.65;;;5.60;1.00;;;;;;7366219;19;20014;-71
2024/02/21 05:34:29;;;;;;;9.88;4.65;;;5.60;1.00;;;;;;7362923;19;20611;-70
2024/02/21 05:37:00;;;;;;;13.95;4.72;;;5.70;1.00;;;;;;7368457;19;20027;-70
2024/02/21 05:39:30;;;;;;;10.93;4.32;;;5.70;1.00;;;;;;7366526;19;20014;-70
2024/02/21 05:42:03;;;;;;;7.35;4.10;;;5.70;1.00;;;;;;7368790;19;20017;-72
2024/02/21 05:44:33;;;;;;;10.75;4.00;;;5.70;1.00;;;;;;7367486;19;20514;-71
2024/02/21 05:47:03;;;;;;;12.20;4.60;;;5.60;1.00;;;;;;7369008;19;20428;-72
2024/02/21 05:49:33;;;;;;;16.58;6.68;;;5.60;1.00;;;;;;7368178;19;20023;-72
2024/02/21 05:52:03;;;;;;;19.70;6.43;;;5.60;1.00;;;;;;7366752;19;20367;-72
2024/02/21 05:54:34;;;;;;;15.93;6.15;;;5.60;1.00;;;;;;7368031;19;20546;-71
2024/02/21 05:57:07;;;;;;;17.17;6.20;;;5.60;1.00;;;;;;7368709;19;20090;-72
2024/02/21 05:59:39;;;;;;;12.55;5.43;;;5.60;1.00;;;;;;7367691;19;20057;-72
2024/02/21 06:02:10;;;;;;;12.20;5.05;;;5.60;1.00;;;;;;7368999;19;20087;-72
2024/02/21 06:04:40;;;;;;;10.73;5.05;;;5.60;1.00;;;;;;7367729;19;20401;-72
2024/02/21 06:07:10;;;;;;;13.30;5.35;;;5.60;1.00;;;;;;7368456;19;20035;-72
2024/02/21 06:09:41;;;;;;;12.43;5.03;;;5.60;1.00;;;;;;7366817;19;20010;-71
2024/02/21 06:12:13;;;;;;;7.28;4.13;;;5.60;1.00;;;;;;7365993;19;20010;-72
2024/02/21 06:14:44;;;;;;;12.18;4.82;;;5.60;1.00;;;;;;7367493;19;20060;-72
2024/02/21 06:17:14;;;;;;;12.13;5.13;;;5.60;1.00;;;;;;7367660;19;20526;-71
2024/02/21 06:19:45;;;;;;;9.93;4.30;;;5.60;1.00;;;;;;7367784;19;20031;-72
2024/02/21 06:22:15;;;;;;;11.20;4.40;;;5.50;1.00;;;;;;7367972;19;20019;-72
2024/02/21 06:24:46;;;;;;;10.55;4.32;;;5.50;1.00;;;;;;7368297;19;20078;-72
2024/02/21 06:27:19;;;;;;;11.00;4.18;;;5.50;1.00;;;;;;7367784;19;20015;-72
2024/02/21 06:29:48;;;;;;;10.00;4.18;;;5.50;1.00;;;;;;7368205;19;20339;-72
2024/02/21 06:32:19;;;;;;;12.93;4.45;;;5.40;1.00;;;;;;7366798;19;20015;-74
2024/02/21 06:34:49;;;;;;;12.85;5.15;;;5.50;1.00;;;;;;7367086;19;20029;-71
2024/02/21 06:37:19;;;;;;;9.20;4.70;;;5.50;1.00;;;;;;7367558;19;20357;-71
2024/02/21 06:39:49;;;;;;;12.23;5.57;;;5.50;1.00;;;;;;7365847;19;20675;-71
2024/02/21 06:42:22;;;;;;;8.50;4.85;;;5.50;1.00;;;;;;7366801;19;20003;-71
2024/02/21 06:44:52;;;;;;;11.48;4.47;;;5.50;1.00;;;;;;7365082;19;20019;-71
2024/02/21 06:47:22;;;;;;;10.43;4.93;;;5.50;1.00;;;;;;7366989;19;20032;-72
2024/02/21 06:49:53;;;;;;;12.60;5.78;;;5.60;1.00;;;;;;7365435;19;20007;-71
2024/02/21 06:52:24;;;;;;;11.38;5.35;;;5.60;1.00;;;;;;7367185;19;20348;-71
2024/02/21 06:54:54;;;;;;;12.48;4.55;;;5.60;1.00;;;;;;7366181;19;20018;-71
2024/02/21 06:57:27;;;;;;;12.60;5.15;;;5.60;1.00;;;;;;7368977;19;20030;-70
2024/02/21 06:59:57;;;;;;;11.77;4.95;;;5.70;1.00;;;;;;7367766;19;20019;-70
2024/02/21 07:02:27;;;;;;;9.55;4.10;;;5.80;1.00;;;;;;7366370;19;20090;-72
2024/02/21 07:04:57;;;;;;;9.55;4.18;;;5.80;1.00;;;;;;7366313;19;20007;-72
2024/02/21 07:07:29;;;;;;;8.45;4.32;;;6.00;1.00;;;;;;7365063;19;20419;-72
2024/02/21 07:10:00;;;;;;;12.80;4.13;;;6.10;1.00;;;;;;7366346;19;20744;-72
2024/02/21 07:12:33;;;;;;;5.80;3.58;;;6.10;1.00;;;;;;7373146;19;20048;-71
2024/02/21 07:15:03;;;;;;;12.55;4.53;;;6.20;1.00;;;;;;7365127;19;20014;-71
2024/02/21 07:17:36;;;;;;;12.05;4.22;;;6.20;1.00;;;;;;7364570;19;20010;-72
2024/02/21 07:20:07;;;;;;;12.82;4.65;;;6.20;1.00;;;;;;7367876;19;20352;-71
2024/02/21 07:22:38;;;;;;;9.80;3.97;;;6.30;1.00;;;;;;7366889;19;20425;-71
2024/02/21 07:25:09;;;;;;;8.27;5.13;;;6.40;1.00;;;;;;7372261;19;20025;-71
2024/02/21 07:27:42;;;;;;;11.27;5.00;;;6.50;1.00;;;;;;7374171;19;20086;-73
2024/02/21 07:30:13;;;;;;;12.65;4.25;;;6.60;1.00;;;;;;7372433;19;20086;-72
2024/02/21 07:32:46;;;;;;;13.02;4.97;;;6.80;1.00;;;;;;7372733;19;20034;-71
2024/02/21 07:35:16;;;;;;;9.05;4.47;;;6.90;1.00;;;;;;7372023;19;20360;-72
2024/02/21 07:37:46;;;;;;;9.75;4.70;;;7.00;1.00;;;;;;7372828;19;20011;-70
2024/02/21 07:40:18;;;;;;;12.27;4.40;;;7.10;1.00;;;;;;7371391;19;20471;-70
2024/02/21 07:42:50;;;;;;;10.43;4.68;;;7.20;1.00;;;;;;7372227;19;20443;-72
2024/02/21 07:45:23;;;;;;;11.55;4.75;;;7.30;1.00;;;;;;7371189;19;20022;-71
2024/02/21 07:47:53;;;;;;;11.57;4.03;;;7.40;1.00;;;;;;7373121;19;20013;-70
2024/02/21 07:50:23;;;;;;;13.77;4.53;;;7.50;1.00;;;;;;7371006;19;20006;-71
2024/02/21 07:52:54;;;;;;;14.35;4.80;;;7.50;1.00;;;;;;7371178;19;20010;-70
2024/02/21 07:55:24;;;;;;;14.15;5.47;;;7.50;1.00;;;;;;7370932;19;20117;-70
2024/02/21 07:57:56;;;;;;;12.35;5.38;;;7.60;1.00;;;;;;7370218;19;20015;-71
2024/02/21 08:00:26;;;;;;;10.82;5.30;;;7.70;1.00;;;;;;7370659;19;20017;-70
2024/02/21 08:02:56;;;;;;;9.70;4.18;;;7.80;1.00;;;;;;7370914;19;20570;-72
2024/02/21 08:05:27;;;;;;;8.82;3.50;;;7.90;1.00;;;;;;7371144;19;20018;-71
2024/02/21 08:07:57;;;;;;;9.80;4.43;;;7.90;1.00;;;;;;7371629;19;20040;-72
2024/02/21 08:10:27;;;;;;;7.95;3.97;;;8.10;1.00;;;;;;7369830;19;20018;-71
2024/02/21 08:13:00;;;;;;;10.00;3.67;;;8.20;1.00;;;;;;7370691;19;20015;-72
2024/02/21 08:15:30;;;;;;;9.38;3.60;;;8.20;1.00;;;;;;7369934;19;20070;-71
2024/02/21 08:18:03;;;;;;;9.43;2.55;;;8.40;1.00;;;;;;7371689;19;20011;-72
2024/02/21 08:20:33;;;;;;;8.40;3.30;;;8.50;1.00;;;;;;7369131;19;20014;-71
2024/02/21 08:23:04;;;;;;;9.63;2.80;;;8.60;1.00;;;;;;7370417;19;20006;-70
2024/02/21 08:25:34;;;;;;;13.15;8.65;;;8.70;1.00;;;;;;7370938;19;20010;-71
2024/02/21 08:28:08;;;;;;;9.10;3.05;;;8.80;1.00;;;;;;7372002;19;20010;-74
2024/02/21 08:30:38;;;;;;;8.85;3.03;;;8.90;1.00;;;;;;7369728;19;20022;-71
2024/02/21 08:33:08;;;;;;;13.63;4.03;;;8.90;1.00;;;;;;7368652;19;20030;-71
2024/02/21 08:35:38;;;;;;;9.25;3.08;;;9.10;1.00;;;;;;7369208;19;20023;-71
2024/02/21 08:38:08;;;;;;;12.38;3.75;;;9.10;1.00;;;;;;7371343;19;20052;-70
2024/02/21 08:40:38;;;;;;;6.25;2.60;;;9.20;1.00;;;;;;7369265;19;20082;-72
2024/02/21 08:43:11;;;;;;;6.40;2.80;;;9.30;1.00;;;;;;7366345;19;20075;-72
2024/02/21 08:45:41;;;;;;;8.80;2.42;;;9.40;1.00;;;;;;7369607;19;20031;-70
2024/02/21 08:48:11;;;;;;;7.30;2.58;;;9.40;1.00;;;;;;7370343;19;20098;-71
2024/02/21 08:50:41;;;;;;;6.13;3.38;;;9.40;1.00;;;;;;7367498;19;20010;-71
2024/02/21 08:53:12;;;;;;;7.78;2.83;;;9.40;1.00;;;;;;7368749;19;20015;-70
2024/02/21 08:55:44;;;;;;;11.60;2.78;;;9.40;1.00;;;;;;7368225;19;20014;-71
2024/02/21 08:58:17;;;;;;;10.32;2.70;;;9.40;1.00;;;;;;7368713;19;20011;-70
2024/02/21 09:00:50;;;;;;;11.13;3.00;;;9.40;1.00;;;;;;7368172;19;20010;-71
2024/02/21 09:03:21;;;;;;;7.38;2.35;;;9.50;1.00;;;;;;7364869;19;20007;-71
2024/02/21 09:05:51;;;;;;;9.02;2.80;;;9.50;1.00;;;;;;7367623;19;20017;-71
2024/02/21 09:08:22;;;;;;;7.78;2.30;;;9.60;1.00;;;;;;7367293;19;20013;-72
2024/02/21 09:10:52;;;;;;;5.55;2.53;;;9.60;1.00;;;;;;7367192;19;20002;-70
2024/02/21 09:13:24;;;;;;;9.75;2.80;;;9.60;1.00;;;;;;7366881;19;20018;-71
2024/02/21 09:15:55;;;;;;;10.48;2.50;;;9.60;1.00;;;;;;7368634;19;20021;-71
2024/02/21 09:18:26;;;;;;;8.00;2.90;;;9.60;1.00;;;;;;7366733;19;20372;-71
2024/02/21 09:21:00;;;;;;;8.77;3.35;;;9.70;1.00;;;;;;7368056;19;20647;-71
2024/02/21 09:23:31;;;;;;;8.95;2.95;;;9.70;1.00;;;;;;7367678;19;20003;-71
2024/02/21 09:26:04;;;;;;;10.95;3.03;;;9.80;1.00;;;;;;7369794;19;20031;-71
2024/02/21 09:28:37;;;;;;;10.40;4.43;;;9.90;1.00;;;;;;7367017;19;20011;-71
2024/02/21 09:31:07;;;;;;;8.60;2.75;;;9.90;1.00;;;;;;7368149;19;20014;-71
2024/02/21 09:33:37;;;;;;;10.02;2.78;;;9.90;1.00;;;;;;7366127;19;20031;-70
2024/02/21 09:36:08;;;;;;;7.05;2.92;;;10.00;1.00;;;;;;7367670;19;20565;-72
2024/02/21 09:38:38;;;;;;;11.15;2.95;;;10.10;1.00;;;;;;7366053;19;20010;-71
2024/02/21 09:41:19;;;;;;;14.27;2.53;;;10.20;1.00;;;;;;7367742;19;20017;-71
2024/02/21 09:43:57;;;;;;;6.70;2.40;;;10.40;1.00;;;;;;7365843;19;20574;-72
2024/02/21 09:46:39;;;;;;;5.78;2.38;;;10.50;1.00;;;;;;7365546;19;20010;-71
2024/02/21 09:49:17;;;;;;;9.25;2.22;;;10.40;1.00;;;;;;7367337;19;20021;-72
2024/02/21 09:51:49;;;;;;;8.25;2.60;;;10.30;1.00;;;;;;7368123;19;20010;-71
2024/02/21 09:54:20;;;;;;;6.53;2.63;;;10.60;1.00;;;;;;7366970;19;20007;-72
2024/02/21 09:56:50;;;;;;;5.45;1.92;;;10.80;1.00;;;;;;7366446;19;20058;-72
2024/02/21 09:59:27;;;;;;;12.45;2.50;;;10.80;1.00;;;;;;7363198;19;20011;-71
2024/02/21 10:01:57;;;;;;;6.05;2.22;;;11.10;1.00;;;;;;7367097;19;20018;-72
2024/02/21 10:04:27;;;;;;;6.38;1.98;;;11.10;1.00;;;;;;7365271;19;20115;-72
2024/02/21 10:06:57;;;;;;;10.52;2.33;;;11.20;1.00;;;;;;7365903;19;20030;-71
2024/02/21 10:09:29;;;;;;;5.40;2.75;;;11.10;1.00;;;;;;7363279;19;20011;-71
2024/02/21 10:12:11;;;;;;;9.55;2.90;;;11.20;1.00;;;;;;7367348;19;20090;-72
2024/02/21 10:14:45;;;;;;;8.20;2.17;;;11.20;1.00;;;;;;7365245;19;20021;-72
2024/02/21 10:17:20;;;;;;;10.77;2.38;;;11.30;1.00;;;;;;7367216;19;20018;-72
2024/02/21 10:19:52;;;;;;;3.30;1.80;;;11.30;1.00;;;;;;7365028;19;20015;-71
2024/02/21 10:22:23;;;;;;;7.32;2.40;;;11.20;1.00;;;;;;7366962;19;20010;-71
2024/02/21 10:24:54;;;;;;;5.65;2.13;;;11.40;1.00;;;;;;7365763;19;20030;-71
2024/02/21 10:27:26;;;;;;;5.00;2.35;;;11.50;1.00;;;;;;7368051;19;20590;-71
2024/02/21 10:29:59;;;;;;;5.55;2.33;;;11.50;1.00;;;;;;7366056;19;20398;-70
2024/02/21 10:32:30;;;;;;;9.15;2.00;;;11.40;1.00;;;;;;7367445;19;20014;-71
2024/02/21 10:35:05;;;;;;;13.02;2.45;;;11.50;1.00;;;;;;7356816;19;20007;-71
2024/02/21 10:37:36;;;;;;;8.48;2.30;;;11.60;1.00;;;;;;7364455;19;20007;-72
2024/02/21 10:40:07;;;;;;;7.68;2.40;;;11.50;1.00;;;;;;7362810;19;20014;-70
2024/02/21 10:42:40;;;;;;;6.45;1.90;;;11.60;1.00;;;;;;7366938;19;20063;-71
2024/02/21 10:45:13;;;;;;;9.18;2.40;;;11.80;1.00;;;;;;7364464;19;20015;-71
2024/02/21 10:47:53;;;;;;;5.65;2.00;;;11.50;1.00;;;;;;7365281;19;20015;-71
2024/02/21 10:50:27;;;;;;;8.50;2.40;;;11.30;1.00;;;;;;7364477;19;20062;-71
2024/02/21 10:53:06;;;;;;;4.93;2.17;;;11.20;1.00;;;;;;7366015;19;20098;-71
2024/02/21 10:55:43;;;;;;;7.93;2.47;;;11.50;1.00;;;;;;7363560;19;20467;-71
2024/02/21 10:58:13;;;;;;;7.38;2.42;;;11.60;1.00;;;;;;7370386;19;20007;-71
2024/02/21 11:00:47;;;;;;;4.30;1.90;;;11.50;1.00;;;;;;7369797;19;20020;-71
2024/02/21 11:03:17;;;;;;;9.18;2.08;;;11.80;1.00;;;;;;7370409;19;20352;-71
2024/02/21 11:05:48;;;;;;;5.03;2.15;;;11.80;1.00;;;;;;7371508;19;20482;-71
2024/02/21 11:08:19;;;;;;;4.45;1.83;;;11.70;1.00;;;;;;7371589;19;20515;-72
2024/02/21 11:10:49;;;;;;;5.63;2.20;;;11.80;1.00;;;;;;7370642;19;20081;-72
2024/02/21 11:13:19;;;;;;;8.85;2.25;;;12.00;1.00;;;;;;7372402;19;20414;-72
2024/02/21 11:15:52;;;;;;;5.95;2.20;;;11.90;1.00;;;;;;7370268;19;20058;-72
2024/02/21 11:18:26;;;;;;;6.97;2.10;;;12.10;1.00;;;;;;7371440;19;20015;-71
2024/02/21 11:20:57;;;;;;;8.15;1.88;;;11.90;1.00;;;;;;7369034;19;20019;-71
2024/02/21 11:23:28;;;;;;;9.10;2.63;;;12.00;1.00;;;;;;7371267;19;20014;-71
2024/02/21 11:26:07;;;;;;;6.40;2.65;;;12.20;1.00;;;;;;7370288;19;20018;-71
2024/02/21 11:28:38;;;;;;;5.95;2.75;;;12.20;1.00;;;;;;7370038;19;20036;-72
2024/02/21 11:31:16;;;;;;;5.50;1.75;;;12.40;1.00;;;;;;7371165;19;20485;-73
2024/02/21 11:33:49;;;;;;;7.43;2.08;;;12.10;1.00;;;;;;7372075;19;20010;-72
2024/02/21 11:36:27;;;;;;;3.80;1.90;;;12.40;1.00;;;;;;7371742;19;20829;-72
2024/02/21 11:38:57;;;;;;;7.50;2.10;;;12.40;1.00;;;;;;7368949;19;20539;-72
2024/02/21 11:41:27;;;;;;;6.85;1.83;;;12.50;1.00;;;;;;7370344;19;20014;-70
2024/02/21 11:43:57;;;;;;;7.28;2.15;;;12.40;1.00;;;;;;7369263;19;20027;-71
2024/02/21 11:46:30;;;;;;;12.65;2.72;;;12.20;1.00;;;;;;7369409;19;20438;-72
2024/02/21 11:49:01;;;;;;;7.13;1.90;;;12.30;1.00;;;;;;7370701;19;20369;-72
2024/02/21 11:51:32;;;;;;;5.38;2.15;;;12.00;1.00;;;;;;7370603;19;20023;-70
2024/02/21 11:54:03;;;;;;;5.85;2.08;;;12.00;1.00;;;;;;7369662;19;20406;-71
2024/02/21 11:56:34;;;;;;;5.88;2.30;;;12.00;1.00;;;;;;7371340;19;20364;-71
2024/02/21 11:59:06;;;;;;;9.45;2.30;;;12.20;1.00;;;;;;7368875;19;20078;-71
2024/02/21 12:01:39;;;;;;;5.47;2.08;;;12.10;1.00;;;;;;7373010;19;20011;-70
2024/02/21 12:04:09;;;;;;;7.53;2.13;;;12.30;1.00;;;;;;7369660;19;21154;-71
2024/02/21 12:06:39;;;;;;;3.92;1.92;;;12.20;1.00;;;;;;7370456;19;20050;-71
2024/02/21 12:09:11;;;;;;;5.82;2.25;;;12.40;1.00;;;;;;7365387;19;20007;-71
2024/02/21 12:11:41;;;;;;;9.10;2.25;;;12.40;1.00;;;;;;7370302;19;20031;-71
2024/02/21 12:14:11;;;;;;;6.00;2.40;;;12.30;1.00;;;;;;7368729;19;20479;-71
2024/02/21 12:16:47;;;;;;;5.93;2.15;;;12.50;1.00;;;;;;7367492;19;20094;-71
2024/02/21 12:19:18;;;;;;;8.45;2.33;;;12.30;1.00;;;;;;7370429;19;20036;-71
2024/02/21 12:21:50;;;;;;;5.82;1.83;;;12.00;1.00;;;;;;7370088;19;20503;-71
2024/02/21 12:24:23;;;;;;;4.10;1.80;;;12.40;1.00;;;;;;7368216;19;20015;-72
2024/02/21 12:26:54;;;;;;;5.68;2.00;;;12.50;1.00;;;;;;7368876;19;20055;-71
2024/02/21 12:29:25;;;;;;;4.13;1.80;;;12.60;1.00;;;;;;7368166;19;20047;-72
2024/02/21 12:31:58;;;;;;;5.55;1.98;;;12.60;1.00;;;;;;7369974;19;20468;-70
2024/02/21 12:34:31;;;;;;;3.72;1.70;;;12.50;1.00;;;;;;7367888;19;20772;-70
2024/02/21 12:37:19;;;;;;;6.13;2.25;;;12.60;1.00;;;;;;6859476;19;2004057;-70
2024/02/21 12:39:49;;;;;;;8.07;3.28;;;12.70;1.00;;;;;;7366784;19;20045;-70
2024/02/21 12:42:19;;;;;;;6.65;3.35;;;12.70;1.00;;;;;;7366670;19;20016;-71
2024/02/21 12:44:49;;;;;;;5.72;2.70;;;12.80;1.00;;;;;;7366902;19;20026;-72
2024/02/21 12:47:24;;;;;;;3.25;1.83;;;13.00;1.00;;;;;;7369039;19;20014;-71
2024/02/21 12:49:54;;;;;;;7.78;2.17;;;13.00;1.00;;;;;;7367523;19;20014;-73
2024/02/21 12:52:24;;;;;;;4.90;2.00;;;13.10;1.00;;;;;;7369090;19;20029;-71
2024/02/21 12:54:56;;;;;;;5.35;1.90;;;13.00;1.00;;;;;;7365800;19;20040;-71
2024/02/21 12:57:26;;;;;;;4.80;1.70;;;12.70;1.00;;;;;;7367597;19;20094;-71
2024/02/21 12:59:57;;;;;;;6.45;3.53;;;12.80;1.00;;;;;;7368371;19;20010;-70
2024/02/21 13:02:29;;;;;;;6.18;2.50;;;12.50;1.00;;;;;;7367540;19;20151;-70
2024/02/21 13:05:00;;;;;;;5.75;1.88;;;12.60;1.00;;;;;;7367279;19;20020;-71
2024/02/21 13:07:32;;;;;;;6.32;1.90;;;12.90;1.00;;;;;;7368519;19;20379;-71
2024/02/21 13:10:03;;;;;;;5.72;2.20;;;13.10;1.00;;;;;;7367914;19;20870;-71
2024/02/21 13:12:33;;;;;;;5.13;1.77;;;13.00;1.00;;;;;;7366675;19;20649;-71
2024/02/21 13:15:03;;;;;;;5.35;1.52;;;13.10;1.00;;;;;;7366390;19;20018;-70
2024/02/21 13:17:35;;;;;;;4.18;1.85;;;13.10;1.00;;;;;;7367778;19;20388;-71
2024/02/21 13:20:08;;;;;;;6.38;1.80;;;13.10;1.00;;;;;;7366801;19;20007;-71
2024/02/21 13:22:38;;;;;;;4.97;1.60;;;13.10;1.00;;;;;;7368551;19;20011;-70